Latest Coastal Weather Observations for Montague Island

IDN60701

Issued at 5:21 pm EST Saturday 2 July 2016 (issued every 10 minutes, with the page automatically refreshed every 10 minutes)

About coastal observations | Map of coastal stations | Coastal observations for NSW | Marine services | Other Formats
Station Details ID: 069017 Name: MONTAGUE ISLAND LIGHTHOUSE Lat: -36.25 Lon: 150.23 Height: 52.0 m
Data from the previous 72 hours. | See also: Recent months at Montague Island
Date/Time
EST
Temp
°C
Wind Pressure Rain since
9am
mm
Weather Cloud Vis
km
Sea
Height
m
Swell
Dir  Spd
kts
Gust
kts
hPa Trend Height
m
Period
s
Dir
02/05:00pm 15.3 N 6 7 1022.3 - 0.0 - - - - - - -
02/04:30pm 15.6 NNE 6 8 1021.9 - 0.0 - - - - - - -
02/04:00pm 15.8 NE 5 7 1021.7 - 0.0 - - - - - - -
02/03:30pm 16.4 ENE 5 7 1021.7 - 0.0 - - - - - - -
02/03:00pm 16.8 NE 6 8 1021.7 - 0.0 - - - - - - -
02/02:30pm 17.3 NNE 2 5 1021.8 - 0.0 - - - - - - -
02/02:00pm 17.3 N 4 7 1021.7 - 0.0 - - - - - - -
02/01:30pm 17.8 WNW 4 6 1021.8 - 0.0 - - - - - - -
02/01:00pm 17.9 W 6 9 1022.0 - 0.0 - - - - - - -
02/12:30pm 17.4 W 9 11 1022.4 - 0.0 - - - - - - -
02/12:00pm 16.9 WNW 9 11 1022.6 - 0.0 - - - - - - -
02/11:30am 16.3 WNW 9 11 1023.0 - 0.0 - - - - - - -
02/11:00am 15.7 WNW 8 11 1023.4 - 0.0 - - - - - - -
02/10:30am 14.9 WNW 9 12 1023.5 - 0.0 - - - - - - -
02/10:00am 14.7 WNW 9 12 1023.5 - 0.0 - - - - - - -
02/09:30am 15.1 W 8 11 1023.5 - 0.0 - - - - - - -
02/09:00am 14.1 W 9 11 1023.5 - 0.0 - - - - - - -
02/08:30am 13.3 WNW 8 12 1023.4 - 0.0 - - - - - - -
02/08:00am 12.6 WNW 8 11 1023.0 - 0.0 - - - - - - -
02/07:30am 12.3 WNW 8 11 1022.8 - 0.0 - - - - - - -
02/07:00am 11.9 W 8 11 1022.5 - 0.0 - - - - - - -
02/06:30am 11.6 W 9 11 1022.4 - 0.0 - - - - - - -
02/06:00am 11.2 WNW 8 10 1022.0 - 0.0 - - - - - - -
02/05:30am 11.5 WNW 8 11 1021.6 - 0.0 - - - - - - -
02/05:00am 11.5 WNW 8 11 1021.4 - 0.0 - - - - - - -
02/04:30am 11.7 WNW 8 10 1021.1 - 0.0 - - - - - - -
02/04:00am 11.4 W 8 12 1020.9 - 0.0 - - - - - - -
02/03:30am 11.6 W 9 12 1021.2 - 0.0 - - - - - - -
02/03:00am 11.9 W 11 16 1021.2 - 0.0 - - - - - - -
02/02:30am 11.9 WNW 9 12 1021.2 - 0.0 - - - - - - -
02/02:00am 12.0 W 9 13 1021.3 - 0.0 - - - - - - -
02/01:30am 11.6 W 8 11 1021.4 - 0.0 - - - - - - -
02/01:00am 11.8 W 8 10 1021.2 - 0.0 - - - - - - -
02/12:30am 11.8 W 7 10 1021.2 - 0.0 - - - - - - -
02/12:00am 12.1 WSW 7 10 1021.2 - 0.0 - - - - - - -
 
Date/Time
EST
Temp
°C
Wind Pressure Rain since
9am
mm
Weather Cloud Vis
km
Sea
Height
m
Swell
Dir  Spd
kts
Gust
kts
hPa Trend Height
m
Period
s
Dir
01/11:30pm 12.5 SW 12 15 1021.0 - 0.0 - - - - - - -
01/11:00pm 12.7 SW 11 15 1021.0 - 0.0 - - - - - - -
01/10:30pm 12.8 SW 12 16 1020.8 - 0.0 - - - - - - -
01/10:00pm 12.8 SW 10 13 1020.6 - 0.0 - - - - - - -
01/09:30pm 12.9 WSW 9 12 1020.6 - 0.0 - - - - - - -
01/09:00pm 13.0 WSW 9 11 1020.5 - 0.0 - - - - - - -
01/08:30pm 13.2 WSW 8 10 1020.3 - 0.0 - - - - - - -
01/08:00pm 13.3 WSW 10 12 1019.9 - 0.0 - - - - - - -
01/07:30pm 13.3 WSW 10 12 1019.6 - 0.0 - - - - - - -
01/07:00pm 13.3 W 9 11 1019.2 - 0.0 - - - - - - -
01/06:30pm 13.6 SW 12 16 1018.6 - 0.0 - - - - - - -
01/06:00pm 14.1 SW 14 18 1018.2 - 0.0 - - - - - - -
01/05:30pm 14.0 SW 19 24 1017.8 - 0.0 - - - - - - -
01/05:00pm 14.4 SW 16 24 1017.3 - 0.0 - - - - - - -
01/04:30pm 14.6 SW 19 26 1016.6 - 0.0 - - - - - - -
01/04:00pm 14.9 SW 17 25 1016.3 - 0.0 - - - - - - -
01/03:30pm 15.2 SW 17 23 1015.8 - 0.0 - - - - - - -
01/03:00pm 15.5 SW 21 27 1015.3 - 0.0 - - - - - - -
01/02:46pm 15.5 SW 20 31 1015.2 - 0.0 - - - - - - -
01/02:30pm 15.9 SW 18 27 1015.0 - 0.0 - - - - - - -
01/02:00pm 15.7 SW 16 25 1014.7 - 0.0 - - - - - - -
01/01:30pm 15.0 SSW 13 22 1014.5 - 0.0 - - - - - - -
01/01:00pm 14.6 SSW 12 18 1014.4 - 0.0 - - - - - - -
01/12:30pm 14.1 SSW 13 19 1014.3 - 0.0 - - - - - - -
01/12:00pm 13.9 SSW 11 16 1014.4 - 0.0 - - - - - - -
01/11:30am 13.9 SW 11 17 1014.7 - 0.0 - - - - - - -
01/11:00am 13.8 WSW 9 13 1014.8 - 0.0 - - - - - - -
01/10:30am 12.2 W 9 12 1015.0 - 0.0 - - - - - - -
01/10:00am 11.9 WSW 12 16 1014.7 - 0.0 - - - - - - -
01/09:30am 11.7 SW 10 14 1014.2 - 0.0 - - - - - - -
01/09:00am 11.7 SW 13 21 1014.1 - 0.0 - - - - - - -
01/08:30am 11.5 SW 11 15 1013.5 - 0.0 - - - - - - -
01/08:00am 11.4 SW 12 16 1013.0 - 0.0 - - - - - - -
01/07:30am 10.8 SW 10 13 1012.6 - 0.0 - - - - - - -
01/07:00am 10.8 WSW 9 12 1012.1 - 0.0 - - - - - - -
01/06:30am 10.9 W 9 12 1011.6 - 0.0 - - - - - - -
01/06:00am 11.4 W 9 13 1011.0 - 0.0 - - - - - - -
01/05:30am 11.5 W 9 11 1010.3 - 0.0 - - - - - - -
01/05:00am 11.6 W 9 13 1009.8 - 0.0 - - - - - - -
01/04:30am 11.4 W 14 21 1009.0 - 0.0 - - - - - - -
01/04:00am 11.4 W 17 22 1008.8 - 0.0 - - - - - - -
01/03:30am 11.9 W 20 26 1008.6 - 0.0 - - - - - - -
01/03:00am 11.8 W 15 23 1008.6 - 0.0 - - - - - - -
01/02:30am 11.7 W 16 21 1008.3 - 0.0 - - - - - - -
01/02:00am 12.6 NW 10 18 1008.2 - 0.0 - - - - - - -
01/01:30am 12.8 NW 9 13 1008.0 - 0.0 - - - - - - -
01/01:00am 13.7 NW 15 25 1008.5 - 0.0 - - - - - - -
01/12:56am 13.8 NNW 15 25 1008.6 - 0.0 - - - - - - -
01/12:30am 13.5 NNW 18 24 1008.6 - 0.0 - - - - - - -
01/12:00am 13.1 NNW 17 24 1008.8 - 0.0 - - - - - - -
 
Date/Time
EST
Temp
°C
Wind Pressure Rain since
9am
mm
Weather Cloud Vis
km
Sea
Height
m
Swell
Dir  Spd
kts
Gust
kts
hPa Trend Height
m
Period
s
Dir
30/11:30pm 13.2 NNW 20 27 1008.8 - 0.0 - - - - - - -
30/11:00pm 12.9 NNW 22 29 1009.0 - 0.0 - - - - - - -
30/10:30pm 13.0 NNW 21 27 1009.4 - 0.0 - - - - - - -
30/10:00pm 13.0 NNW 22 30 1009.5 - 0.0 - - - - - - -
30/09:30pm 12.9 NNW 22 29 1009.5 - 0.0 - - - - - - -
30/09:00pm 12.8 NNW 20 27 1009.7 - 0.0 - - - - - - -
30/08:42pm 12.9 NNW 18 29 1009.9 - 0.0 - - - - - - -
30/08:30pm 12.8 NW 18 27 1010.0 - 0.0 - - - - - - -
30/08:00pm 12.6 NNW 18 25 1010.0 - 0.0 - - - - - - -
30/07:30pm 12.7 NNW 21 27 1010.1 - 0.0 - - - - - - -
30/07:00pm 12.8 NNW 22 30 1010.3 - 0.0 - - - - - - -
30/06:30pm 12.8 NNW 22 29 1010.6 - 0.0 - - - - - - -
30/06:00pm 12.9 NNW 21 28 1010.5 - 0.0 - - - - - - -
30/05:30pm 13.1 NNW 21 29 1010.3 - 0.0 - - - - - - -
30/05:00pm 13.2 NNW 20 27 1010.2 - 0.0 - - - - - - -
30/04:41pm 13.4 NW 20 30 1010.1 - 0.0 - - - - - - -
30/04:30pm 13.6 NW 20 28 1010.3 - 0.0 - - - - - - -
30/04:00pm 13.7 NNW 20 32 1010.4 - 0.0 - - - - - - -
30/03:58pm 13.7 NNW 20 32 1010.3 - 0.0 - - - - - - -
30/03:30pm 13.6 NNW 20 27 1010.6 - 0.0 - - - - - - -
30/03:00pm 13.5 NNW 21 27 1010.8 - 0.0 - - - - - - -
30/02:30pm 13.4 N 20 28 1010.9 - 0.0 - - - - - - -
30/02:00pm 13.6 NNW 18 24 1011.1 - 0.0 - - - - - - -
30/01:30pm 14.0 N 20 27 1011.5 - 0.0 - - - - - - -
30/01:00pm 13.6 N 23 29 1011.9 - 0.0 - - - - - - -
30/12:30pm 14.3 N 19 26 1012.4 - 0.0 - - - - - - -
30/12:00pm 14.0 N 23 29 1012.9 - 0.0 - - - - - - -
30/11:30am 13.9 N 23 33 1013.6 - 0.0 - - - - - - -
30/11:17am 13.9 NNW 23 33 1013.8 - 0.0 - - - - - - -
30/11:00am 13.8 N 23 31 1014.2 - 0.0 - - - - - - -
30/10:30am 13.8 N 22 30 1015.0 - 0.0 - - - - - - -
30/10:00am 13.9 N 24 31 1015.4 - 0.0 - - - - - - -
30/09:30am 13.9 N 25 30 1015.5 - 0.0 - - - - - - -
30/09:00am 13.8 NNW 20 29 1015.9 - 0.0 - - - - - - -
30/08:30am 13.4 N 22 28 1016.4 - 0.0 - - - - - - -
30/08:00am 13.4 N 21 26 1016.7 - 0.0 - - - - - - -
30/07:30am 13.4 N 18 26 1017.0 - 0.0 - - - - - - -
30/07:00am 13.6 N 19 26 1017.1 - 0.0 - - - - - - -
30/06:30am 13.3 N 13 20 1017.3 - 0.0 - - - - - - -
30/06:00am 13.4 NNW 15 23 1017.2 - 0.0 - - - - - - -
30/05:30am 13.3 N 17 24 1017.3 - 0.0 - - - - - - -
30/05:00am 13.1 N 16 23 1017.6 - 0.0 - - - - - - -
30/04:30am 13.0 N 17 21 1017.9 - 0.0 - - - - - - -
30/04:00am 13.2 N 14 20 1018.2 - 0.0 - - - - - - -
30/03:30am 12.8 N 14 19 1018.9 - 0.0 - - - - - - -
30/03:00am 12.8 N 13 18 1019.2 - 0.0 - - - - - - -
30/02:30am 13.2 NNW 12 18 1019.7 - 0.0 - - - - - - -
30/02:00am 12.4 NNW 12 18 1020.1 - 0.0 - - - - - - -
30/01:30am 12.9 NNW 11 15 1020.4 - 0.0 - - - - - - -
30/01:00am 13.4 NNW 12 17 1020.8 - 0.0 - - - - - - -
30/12:30am 13.4 NNW 12 18 1021.1 - 0.0 - - - - - - -
30/12:00am 13.4 NNW 10 15 1021.8 - 0.0 - - - - - - -
 
Date/Time
EST
Temp
°C
Wind Pressure Rain since
9am
mm
Weather Cloud Vis
km
Sea
Height
m
Swell
Dir  Spd
kts
Gust
kts
hPa Trend Height
m
Period
s
Dir
29/11:30pm 14.0 N 13 19 1022.1 - 0.0 - - - - - - -
29/11:00pm 14.4 NNW 12 17 1022.6 - 0.0 - - - - - - -
29/10:30pm 14.5 NNW 13 18 1023.0 - 0.0 - - - - - - -
29/10:00pm 14.1 NNW 10 16 1023.3 - 0.0 - - - - - - -
29/09:30pm 14.0 NW 9 13 1023.7 - 0.0 - - - - - - -
29/09:00pm 14.1 NW 9 11 1023.8 - 0.0 - - - - - - -
29/08:30pm 15.3 NNE 10 13 1024.1 - 0.0 - - - - - - -
29/08:00pm 15.4 NNE 10 14 1024.2 - 0.0 - - - - - - -
29/07:30pm 15.4 NNE 10 13 1024.4 - 0.0 - - - - - - -
29/07:00pm 15.3 NNE 9 13 1024.5 - 0.0 - - - - - - -
29/06:30pm 15.4 NE 9 12 1024.5 - 0.0 - - - - - - -
29/06:00pm 15.3 NE 8 11 1024.4 - 0.0 - - - - - - -
29/05:30pm 15.3 NE 7 10 1024.5 - 0.0 - - - - - - -

Other Formats:

Comma delimited format used in spreadsheet applications
http://www.bom.gov.au/fwo/IDN60701/IDN60701.94939.axf

JavaScript Object Notation format (JSON) in row-major order
http://www.bom.gov.au/fwo/IDN60701/IDN60701.94939.json